Kotoka International Airport

DGAA · Greater Accra, 加纳

罗盘
风向 的 风向 的 风向 到 风向 280° 科托卡国际机场 3/21
风: 6 kt, 2 beaufort

1 kt

6 kt
改变
0 1.000 2.000 3.000 4.000 5.000
SCT 2.000 ft
FEW 3.000 ft
METAR DGAA 022000Z 28006KT 230V310 9999 VCTS SCT020 FEW030CB 28/24 Q1009 NOSIG

METAR 科托卡国际机场 - DGAA/ACC

科托卡国际机场是,加纳中的大型机场。 该机场有一条跑道: 3/21. 该领域的国际民航组织标志是DGAA 它的国际航空运输协会代码是ACC.

这份报告是针对2022年12月2日 20:00, 当地时间在科托卡国际机场进行的。

机场观察

风向为280°,速度为6 kt。 风向在230°和310°之间变化。

可见度为10 km 或者更多。

有疏云,零星散落的云朵在2.000 ft的高度 和 几云 积雨云在3.000 ft的高度。 没有观察到天花板。

当前天气为在附近, 雷暴 。 温度和风寒是28 °C。 热指数为32。 露点为24 °C,相对湿度为79%。 海平面上的气压为1009 hPa (QNH)。

白天

今天,太阳从05:55升起,在17:44降落。 这适用于科托卡国际机场,世界夏令时可能有所不同。 当地时间与世界标准时间之间的时差为+0 小时。 当前,没有夏令时有效。

公司介绍

我们没有关于这个机场的公司信息。

体会

到Vliegles.nl去找飞行课程,跳伞和其他飞行体验。 浏览页面,了解科托卡国际机场附近所有可用的活动。 你也可以使用搜索功能来寻找你所在地附近的特定飞行课程、跳伞或其他飞行体验。

跑道

Id 标题 侧风 逆风 侧风 %
3/21 022°-202° 6 kt 1 kt 98 %

逆风成分最大的方向会被突出显示,并用于横风计算。 这并不一定意味着这个方向在使用。

乌云

2.000 ft SCT 疏云,零星散落的云朵
3.000 ft FEW 几云 积雨云

温度 & 天气

天气 在附近
雷暴
温度 28 °C
露点 24 °C
相对湿度 79%
热度指数 32 °C
Kp-index 2 (0-9)

白天

日出
05:55 (9:12)
中午
11:50
日落
17:44

小工具

你想在你的网站上有一个关于科托卡国际机场的当前航空天气(METAR)的小部件吗?

显示HTML代码

我们和第三方通过cookies跟踪您在我们网站上的互联网行为。如果你继续,我们认为你同意我们的饼干政策